createdAt,value
2019-05-17T00:00:03.000Z,27
2019-05-17T00:01:03.000Z,27
2019-05-17T00:02:03.000Z,27
2019-05-17T00:03:03.000Z,27
2019-05-17T00:04:03.000Z,27
2019-05-17T00:06:03.000Z,27
2019-05-17T00:07:03.000Z,27
2019-05-17T00:08:03.000Z,27
2019-05-17T00:09:03.000Z,27
2019-05-17T00:10:03.000Z,27
2019-05-17T00:11:03.000Z,27
2019-05-17T00:12:03.000Z,27
2019-05-17T00:13:03.000Z,27
2019-05-17T00:14:03.000Z,27
2019-05-17T00:15:03.000Z,27
2019-05-17T00:16:03.000Z,27
2019-05-17T00:17:03.000Z,27
2019-05-17T00:18:03.000Z,27
2019-05-17T00:19:03.000Z,27
2019-05-17T00:21:03.000Z,27
2019-05-17T00:22:03.000Z,27
2019-05-17T00:23:03.000Z,27
2019-05-17T00:24:03.000Z,27
2019-05-17T00:25:03.000Z,27
2019-05-17T00:26:03.000Z,27
2019-05-17T00:27:03.000Z,27
2019-05-17T00:28:03.000Z,27
2019-05-17T00:29:03.000Z,27
2019-05-17T00:31:03.000Z,27
2019-05-17T00:32:03.000Z,27
2019-05-17T00:33:03.000Z,27
2019-05-17T00:34:03.000Z,27
2019-05-17T00:35:03.000Z,27
2019-05-17T00:37:03.000Z,27
2019-05-17T00:38:03.000Z,27
2019-05-17T00:39:03.000Z,27
2019-05-17T00:40:03.000Z,27
2019-05-17T00:41:03.000Z,27
2019-05-17T00:42:03.000Z,27
2019-05-17T00:44:03.000Z,27
2019-05-17T00:45:03.000Z,27
2019-05-17T00:46:03.000Z,27
2019-05-17T00:47:03.000Z,27
2019-05-17T00:48:03.000Z,27
2019-05-17T00:50:03.000Z,27
2019-05-17T00:51:03.000Z,27
2019-05-17T00:52:03.000Z,27
2019-05-17T00:53:03.000Z,27
2019-05-17T00:54:03.000Z,27
2019-05-17T00:55:03.000Z,27
2019-05-17T00:56:03.000Z,27
2019-05-17T00:57:03.000Z,27
2019-05-17T00:58:04.000Z,27
2019-05-17T00:59:04.000Z,27
2019-05-17T01:01:04.000Z,27
2019-05-17T01:02:04.000Z,27
2019-05-17T01:03:04.000Z,27
2019-05-17T01:04:04.000Z,27
2019-05-17T01:05:04.000Z,27
2019-05-17T01:06:04.000Z,27
2019-05-17T01:08:04.000Z,27
2019-05-17T01:09:04.000Z,27
2019-05-17T01:10:04.000Z,27
2019-05-17T01:11:04.000Z,27
2019-05-17T01:12:04.000Z,27
2019-05-17T01:13:04.000Z,27
2019-05-17T01:14:04.000Z,27
2019-05-17T01:15:04.000Z,27
2019-05-17T01:16:04.000Z,27
2019-05-17T01:17:04.000Z,27
2019-05-17T01:18:04.000Z,27
2019-05-17T01:19:04.000Z,27
2019-05-17T01:20:04.000Z,27
2019-05-17T01:21:04.000Z,27
2019-05-17T01:22:21.000Z,27
2019-05-17T01:23:21.000Z,27
2019-05-17T01:24:21.000Z,27
2019-05-17T01:25:21.000Z,27
2019-05-17T01:26:21.000Z,27
2019-05-17T01:27:21.000Z,27
2019-05-17T01:28:21.000Z,27
2019-05-17T01:29:21.000Z,27
2019-05-17T01:30:21.000Z,27
2019-05-17T01:31:21.000Z,27
2019-05-17T01:32:21.000Z,27
2019-05-17T01:34:21.000Z,27
2019-05-17T01:35:21.000Z,27
2019-05-17T01:36:21.000Z,27
2019-05-17T01:37:21.000Z,27
2019-05-17T01:38:21.000Z,27
2019-05-17T01:39:21.000Z,27
2019-05-17T01:40:21.000Z,26
2019-05-17T01:42:21.000Z,26
2019-05-17T01:43:21.000Z,26
2019-05-17T01:44:21.000Z,26
2019-05-17T01:45:21.000Z,26
2019-05-17T01:46:21.000Z,26
2019-05-17T01:47:21.000Z,26
2019-05-17T01:49:21.000Z,26
2019-05-17T01:50:21.000Z,26
2019-05-17T01:51:21.000Z,26
2019-05-17T01:52:21.000Z,26
2019-05-17T01:53:21.000Z,26
2019-05-17T01:54:21.000Z,26
2019-05-17T01:55:21.000Z,26
2019-05-17T01:56:21.000Z,26
2019-05-17T01:57:21.000Z,26
2019-05-17T01:58:21.000Z,26
2019-05-17T01:59:21.000Z,26
2019-05-17T02:00:21.000Z,26
2019-05-17T02:01:21.000Z,26
2019-05-17T02:02:21.000Z,26
2019-05-17T02:03:21.000Z,26
2019-05-17T02:04:21.000Z,26
2019-05-17T02:05:21.000Z,26
2019-05-17T02:06:21.000Z,26
2019-05-17T02:07:21.000Z,26
2019-05-17T02:08:21.000Z,26
2019-05-17T02:09:21.000Z,26
2019-05-17T02:10:21.000Z,26
2019-05-17T02:12:21.000Z,26
2019-05-17T02:13:21.000Z,26
2019-05-17T02:14:21.000Z,26
2019-05-17T02:15:21.000Z,26
2019-05-17T02:16:21.000Z,26
2019-05-17T02:17:21.000Z,26
2019-05-17T02:18:21.000Z,26
2019-05-17T02:20:21.000Z,26
2019-05-17T02:21:21.000Z,26
2019-05-17T02:22:21.000Z,26
2019-05-17T02:23:21.000Z,26
2019-05-17T02:24:21.000Z,26
2019-05-17T02:25:21.000Z,26
2019-05-17T02:26:22.000Z,26
2019-05-17T02:27:22.000Z,26
2019-05-17T02:28:22.000Z,26
2019-05-17T02:29:22.000Z,26
2019-05-17T02:30:22.000Z,26
2019-05-17T02:31:22.000Z,26
2019-05-17T02:32:22.000Z,26
2019-05-17T02:33:22.000Z,26
2019-05-17T02:34:22.000Z,26
2019-05-17T02:35:22.000Z,26
2019-05-17T02:36:22.000Z,26
2019-05-17T02:38:22.000Z,26
2019-05-17T02:39:22.000Z,27
2019-05-17T02:41:22.000Z,27
2019-05-17T02:42:22.000Z,27
2019-05-17T02:43:22.000Z,27
2019-05-17T02:44:22.000Z,27
2019-05-17T02:45:22.000Z,27
2019-05-17T02:46:22.000Z,27
2019-05-17T02:47:22.000Z,27
2019-05-17T02:48:22.000Z,27
2019-05-17T02:49:22.000Z,27
2019-05-17T02:50:22.000Z,27
2019-05-17T02:51:22.000Z,27
2019-05-17T02:52:22.000Z,27
2019-05-17T02:53:22.000Z,27
2019-05-17T02:55:22.000Z,27
2019-05-17T02:56:22.000Z,27
2019-05-17T02:57:22.000Z,27
2019-05-17T02:58:22.000Z,27
2019-05-17T02:59:22.000Z,27
2019-05-17T03:00:22.000Z,27
2019-05-17T03:01:22.000Z,27
2019-05-17T03:03:22.000Z,27
2019-05-17T03:04:22.000Z,27
2019-05-17T03:05:22.000Z,27
2019-05-17T03:06:22.000Z,27
2019-05-17T03:07:22.000Z,27
2019-05-17T03:08:22.000Z,27
2019-05-17T03:09:22.000Z,27
2019-05-17T03:10:22.000Z,27
2019-05-17T03:11:22.000Z,27
2019-05-17T03:12:22.000Z,27
2019-05-17T03:13:22.000Z,27
2019-05-17T03:15:22.000Z,27
2019-05-17T03:16:22.000Z,27
2019-05-17T03:18:22.000Z,27
2019-05-17T03:19:22.000Z,27
2019-05-17T03:20:22.000Z,27
2019-05-17T03:21:22.000Z,27
2019-05-17T03:22:22.000Z,27
2019-05-17T03:23:22.000Z,27
2019-05-17T03:24:22.000Z,27
2019-05-17T03:25:22.000Z,27
2019-05-17T03:27:22.000Z,27
2019-05-17T03:28:22.000Z,27
2019-05-17T03:29:22.000Z,27
2019-05-17T03:30:22.000Z,27
2019-05-17T03:31:22.000Z,27
2019-05-17T03:32:22.000Z,27
2019-05-17T03:33:22.000Z,27
2019-05-17T03:34:22.000Z,27
2019-05-17T03:36:22.000Z,27
2019-05-17T03:37:22.000Z,27
2019-05-17T03:38:22.000Z,27
2019-05-17T03:39:22.000Z,28
2019-05-17T03:40:22.000Z,28
2019-05-17T03:41:22.000Z,28
2019-05-17T03:42:22.000Z,28
2019-05-17T03:44:22.000Z,28
2019-05-17T03:45:22.000Z,28
2019-05-17T03:46:22.000Z,28
2019-05-17T03:47:22.000Z,28
2019-05-17T03:48:22.000Z,28
2019-05-17T03:49:22.000Z,28
2019-05-17T03:50:22.000Z,28
2019-05-17T03:51:22.000Z,28
2019-05-17T03:53:22.000Z,28
2019-05-17T03:54:22.000Z,28
2019-05-17T03:55:22.000Z,28
2019-05-17T03:57:22.000Z,28
2019-05-17T03:58:22.000Z,28
2019-05-17T03:59:22.000Z,28
2019-05-17T04:01:22.000Z,28
2019-05-17T04:02:22.000Z,28
2019-05-17T04:03:22.000Z,28
2019-05-17T04:04:22.000Z,28
2019-05-17T04:05:22.000Z,28
2019-05-17T04:06:22.000Z,28
2019-05-17T04:07:22.000Z,28
2019-05-17T04:08:22.000Z,28
2019-05-17T04:09:22.000Z,28
2019-05-17T04:10:22.000Z,28
2019-05-17T04:11:22.000Z,28
2019-05-17T04:12:22.000Z,28
2019-05-17T04:13:22.000Z,28
2019-05-17T04:14:22.000Z,28
2019-05-17T04:15:22.000Z,28
2019-05-17T04:16:22.000Z,28
2019-05-17T04:17:22.000Z,28
2019-05-17T04:18:22.000Z,28
2019-05-17T04:19:22.000Z,28
2019-05-17T04:20:22.000Z,28
2019-05-17T04:21:22.000Z,28
2019-05-17T04:22:22.000Z,29
2019-05-17T04:23:22.000Z,29
2019-05-17T04:24:22.000Z,29
2019-05-17T04:25:22.000Z,29
2019-05-17T04:26:22.000Z,29
2019-05-17T04:27:22.000Z,30
2019-05-17T04:28:22.000Z,30
2019-05-17T04:29:22.000Z,30
2019-05-17T04:30:22.000Z,30
2019-05-17T04:32:22.000Z,30
2019-05-17T04:34:22.000Z,30
2019-05-17T04:35:22.000Z,31
2019-05-17T04:36:22.000Z,31
2019-05-17T04:37:22.000Z,31
2019-05-17T04:38:22.000Z,31
2019-05-17T04:39:22.000Z,31
2019-05-17T04:40:22.000Z,31
2019-05-17T04:41:22.000Z,31
2019-05-17T04:42:22.000Z,31
2019-05-17T04:43:22.000Z,31
2019-05-17T04:45:22.000Z,31
2019-05-17T04:46:22.000Z,31
2019-05-17T04:47:22.000Z,31
2019-05-17T04:48:22.000Z,31
2019-05-17T04:49:22.000Z,31
2019-05-17T04:50:22.000Z,32
2019-05-17T04:51:22.000Z,32
2019-05-17T04:52:22.000Z,32
2019-05-17T04:53:22.000Z,32
2019-05-17T04:54:22.000Z,32
2019-05-17T04:55:22.000Z,32
2019-05-17T04:56:22.000Z,32
2019-05-17T04:57:22.000Z,32
2019-05-17T04:58:22.000Z,32
2019-05-17T04:59:22.000Z,32
2019-05-17T05:00:22.000Z,32
2019-05-17T05:02:22.000Z,32
2019-05-17T05:04:22.000Z,32
2019-05-17T05:05:22.000Z,32
2019-05-17T05:06:22.000Z,32
2019-05-17T05:07:22.000Z,31
2019-05-17T05:08:22.000Z,32
2019-05-17T05:09:22.000Z,32
2019-05-17T05:10:22.000Z,32
2019-05-17T05:11:22.000Z,32
2019-05-17T05:12:22.000Z,32
2019-05-17T05:13:22.000Z,32
2019-05-17T05:14:22.000Z,32
2019-05-17T05:16:22.000Z,33
2019-05-17T05:17:22.000Z,33
2019-05-17T05:18:22.000Z,33
2019-05-17T05:19:22.000Z,33
2019-05-17T05:20:22.000Z,33
2019-05-17T05:21:22.000Z,33
2019-05-17T05:22:22.000Z,33
2019-05-17T05:23:22.000Z,34
2019-05-17T05:25:22.000Z,34
2019-05-17T05:26:22.000Z,34
2019-05-17T05:27:22.000Z,34
2019-05-17T05:28:22.000Z,34
2019-05-17T05:29:22.000Z,34
2019-05-17T05:30:22.000Z,34
2019-05-17T05:31:22.000Z,34
2019-05-17T05:32:22.000Z,34
2019-05-17T05:33:22.000Z,34
2019-05-17T05:34:22.000Z,34
2019-05-17T05:35:22.000Z,34
2019-05-17T05:36:22.000Z,34
2019-05-17T05:37:22.000Z,34
2019-05-17T05:38:22.000Z,34
2019-05-17T05:39:22.000Z,34
2019-05-17T05:40:22.000Z,34
2019-05-17T05:41:22.000Z,34
2019-05-17T05:42:22.000Z,34
2019-05-17T05:43:22.000Z,34
2019-05-17T05:44:22.000Z,34
2019-05-17T05:46:22.000Z,34
2019-05-17T05:48:22.000Z,34
2019-05-17T05:49:22.000Z,34
2019-05-17T05:50:22.000Z,34
2019-05-17T05:51:22.000Z,34
2019-05-17T05:52:22.000Z,34
2019-05-17T05:53:22.000Z,34
2019-05-17T05:54:22.000Z,34
2019-05-17T05:55:22.000Z,34
2019-05-17T05:56:22.000Z,34
2019-05-17T05:57:22.000Z,34
2019-05-17T05:59:22.000Z,34
2019-05-17T06:00:22.000Z,34
2019-05-17T06:01:22.000Z,34
2019-05-17T06:02:22.000Z,34
2019-05-17T06:03:22.000Z,34
2019-05-17T06:04:22.000Z,34
2019-05-17T06:05:22.000Z,34
2019-05-17T06:06:22.000Z,34
2019-05-17T06:07:22.000Z,35
2019-05-17T06:08:22.000Z,35
2019-05-17T06:09:22.000Z,34
2019-05-17T06:10:22.000Z,34
2019-05-17T06:11:22.000Z,34
2019-05-17T06:12:22.000Z,34
2019-05-17T06:13:22.000Z,34
2019-05-17T06:15:22.000Z,34
2019-05-17T06:16:22.000Z,35
2019-05-17T06:17:22.000Z,35
2019-05-17T06:18:22.000Z,35
2019-05-17T06:19:22.000Z,35
2019-05-17T06:20:22.000Z,35
2019-05-17T06:21:22.000Z,35
2019-05-17T06:22:22.000Z,35
2019-05-17T06:23:22.000Z,35
2019-05-17T06:24:22.000Z,34
2019-05-17T06:25:22.000Z,34
2019-05-17T06:26:22.000Z,34
2019-05-17T06:27:22.000Z,34
2019-05-17T06:28:22.000Z,34
2019-05-17T06:29:22.000Z,35
2019-05-17T06:30:22.000Z,34
2019-05-17T06:31:22.000Z,34
2019-05-17T06:32:22.000Z,34
2019-05-17T06:33:22.000Z,34
2019-05-17T06:34:22.000Z,34
2019-05-17T06:35:22.000Z,34
2019-05-17T06:36:22.000Z,35
2019-05-17T06:37:22.000Z,34
2019-05-17T06:38:22.000Z,34
2019-05-17T06:39:22.000Z,34
2019-05-17T06:40:22.000Z,34
2019-05-17T06:41:22.000Z,34
2019-05-17T06:42:22.000Z,34
2019-05-17T06:44:22.000Z,34
2019-05-17T06:45:22.000Z,35
2019-05-17T06:46:22.000Z,35
2019-05-17T06:47:22.000Z,34
2019-05-17T06:48:22.000Z,35
2019-05-17T06:49:22.000Z,35
2019-05-17T06:50:22.000Z,35
2019-05-17T06:51:22.000Z,34
2019-05-17T06:52:22.000Z,34
2019-05-17T06:53:22.000Z,34
2019-05-17T06:54:22.000Z,34
2019-05-17T06:55:22.000Z,34
2019-05-17T06:56:22.000Z,34
2019-05-17T06:57:22.000Z,34
2019-05-17T06:59:22.000Z,34
2019-05-17T07:00:22.000Z,34
2019-05-17T07:01:22.000Z,34
2019-05-17T07:02:22.000Z,34
2019-05-17T07:03:22.000Z,34
2019-05-17T07:04:22.000Z,34
2019-05-17T07:05:22.000Z,34
2019-05-17T07:06:22.000Z,34
2019-05-17T07:07:22.000Z,34
2019-05-17T07:08:22.000Z,34
2019-05-17T07:09:22.000Z,34
2019-05-17T07:10:22.000Z,34
2019-05-17T07:11:22.000Z,34
2019-05-17T07:12:22.000Z,35
2019-05-17T07:13:22.000Z,35
2019-05-17T07:14:22.000Z,35
2019-05-17T07:15:22.000Z,35
2019-05-17T07:16:22.000Z,35
2019-05-17T07:17:22.000Z,35
2019-05-17T07:18:22.000Z,35
2019-05-17T07:19:22.000Z,35
2019-05-17T07:20:22.000Z,35
2019-05-17T07:21:22.000Z,35
2019-05-17T07:22:22.000Z,35
2019-05-17T07:23:22.000Z,36
2019-05-17T07:24:22.000Z,36
2019-05-17T07:25:22.000Z,36
2019-05-17T07:27:22.000Z,36
2019-05-17T07:28:22.000Z,36
2019-05-17T07:29:22.000Z,36
2019-05-17T07:31:22.000Z,36
2019-05-17T07:32:22.000Z,36
2019-05-17T07:33:22.000Z,36
2019-05-17T07:34:22.000Z,36
2019-05-17T07:35:22.000Z,36
2019-05-17T07:37:22.000Z,36
2019-05-17T07:38:22.000Z,36
2019-05-17T07:39:22.000Z,36
2019-05-17T07:40:22.000Z,36
2019-05-17T07:41:22.000Z,36
2019-05-17T07:42:22.000Z,36
2019-05-17T07:43:22.000Z,36
2019-05-17T07:44:22.000Z,36
2019-05-17T07:45:22.000Z,36
2019-05-17T07:46:22.000Z,36
2019-05-17T07:47:22.000Z,36
2019-05-17T07:48:22.000Z,36
2019-05-17T07:49:22.000Z,36
2019-05-17T07:50:22.000Z,36
2019-05-17T07:51:21.000Z,36
2019-05-17T07:52:21.000Z,36
2019-05-17T07:53:21.000Z,36
2019-05-17T07:54:21.000Z,36
2019-05-17T07:55:21.000Z,36
2019-05-17T07:56:21.000Z,36
2019-05-17T07:57:21.000Z,36
2019-05-17T07:58:21.000Z,36
2019-05-17T07:59:21.000Z,36
2019-05-17T08:00:21.000Z,36
2019-05-17T08:01:21.000Z,36
2019-05-17T08:03:21.000Z,36
2019-05-17T08:04:21.000Z,36
2019-05-17T08:05:21.000Z,36
2019-05-17T08:06:21.000Z,36
2019-05-17T08:07:21.000Z,36
2019-05-17T08:08:21.000Z,36
2019-05-17T08:09:21.000Z,36
2019-05-17T08:10:21.000Z,36
2019-05-17T08:11:21.000Z,36
2019-05-17T08:12:21.000Z,36
2019-05-17T08:13:21.000Z,36
2019-05-17T08:14:21.000Z,36
2019-05-17T08:15:21.000Z,36
2019-05-17T08:16:21.000Z,36
2019-05-17T08:17:21.000Z,36
2019-05-17T08:18:21.000Z,36
2019-05-17T08:19:21.000Z,36
2019-05-17T08:21:21.000Z,36
2019-05-17T08:22:21.000Z,36
2019-05-17T08:23:21.000Z,36
2019-05-17T08:25:21.000Z,36
2019-05-17T08:26:21.000Z,36
2019-05-17T08:27:21.000Z,36
2019-05-17T08:28:21.000Z,36
2019-05-17T08:29:21.000Z,36
2019-05-17T08:30:21.000Z,36
2019-05-17T08:31:21.000Z,36
2019-05-17T08:32:21.000Z,36
2019-05-17T08:33:21.000Z,36
2019-05-17T08:34:21.000Z,36
2019-05-17T08:35:21.000Z,36
2019-05-17T08:36:21.000Z,36
2019-05-17T08:37:21.000Z,35
2019-05-17T08:38:21.000Z,35
2019-05-17T08:39:21.000Z,35
2019-05-17T08:40:21.000Z,35
2019-05-17T08:41:21.000Z,35
2019-05-17T08:42:21.000Z,35
2019-05-17T08:43:21.000Z,35
2019-05-17T08:45:21.000Z,35
2019-05-17T08:46:21.000Z,35
2019-05-17T08:48:21.000Z,35
2019-05-17T08:49:21.000Z,35
2019-05-17T08:50:21.000Z,35
2019-05-17T08:51:21.000Z,35
2019-05-17T08:52:21.000Z,35
2019-05-17T08:53:21.000Z,35
2019-05-17T08:54:21.000Z,35
2019-05-17T08:55:21.000Z,35
2019-05-17T08:56:21.000Z,35
2019-05-17T08:57:22.000Z,35
2019-05-17T08:58:22.000Z,35
2019-05-17T08:59:22.000Z,35
2019-05-17T09:00:22.000Z,35
2019-05-17T09:01:22.000Z,35
2019-05-17T09:02:22.000Z,35
2019-05-17T09:03:22.000Z,35
2019-05-17T09:04:22.000Z,35
2019-05-17T09:05:22.000Z,35
2019-05-17T09:06:22.000Z,35
2019-05-17T09:07:22.000Z,35
2019-05-17T09:08:22.000Z,35
2019-05-17T09:10:22.000Z,35
2019-05-17T09:11:22.000Z,35
2019-05-17T09:12:22.000Z,35
2019-05-17T09:13:22.000Z,35
2019-05-17T09:14:22.000Z,35
2019-05-17T09:15:22.000Z,35
2019-05-17T09:16:22.000Z,35
2019-05-17T09:17:22.000Z,35
2019-05-17T09:19:22.000Z,35
2019-05-17T09:20:22.000Z,35
2019-05-17T09:21:22.000Z,35
2019-05-17T09:23:22.000Z,36
2019-05-17T09:24:22.000Z,36
2019-05-17T09:25:22.000Z,36
2019-05-17T09:26:22.000Z,36
2019-05-17T09:27:22.000Z,36
2019-05-17T09:29:22.000Z,36
2019-05-17T09:30:22.000Z,36
2019-05-17T09:31:22.000Z,36
2019-05-17T09:32:22.000Z,36
2019-05-17T09:33:22.000Z,36
2019-05-17T09:34:22.000Z,36
2019-05-17T09:35:22.000Z,36
2019-05-17T09:36:22.000Z,36
2019-05-17T09:37:22.000Z,35
2019-05-17T09:38:22.000Z,35
2019-05-17T09:39:22.000Z,35
2019-05-17T09:40:22.000Z,35
2019-05-17T09:41:22.000Z,35
2019-05-17T09:42:22.000Z,35
2019-05-17T09:43:22.000Z,35
2019-05-17T09:44:22.000Z,35
2019-05-17T09:46:22.000Z,35
2019-05-17T09:48:22.000Z,34
2019-05-17T09:49:22.000Z,34
2019-05-17T09:50:22.000Z,34
2019-05-17T09:51:22.000Z,34
2019-05-17T09:52:22.000Z,34
2019-05-17T09:53:22.000Z,34
2019-05-17T09:54:22.000Z,34
2019-05-17T09:55:22.000Z,34
2019-05-17T09:56:22.000Z,34
2019-05-17T09:57:22.000Z,34
2019-05-17T09:58:22.000Z,34
2019-05-17T09:59:22.000Z,34
2019-05-17T10:00:22.000Z,34
2019-05-17T10:01:22.000Z,34
2019-05-17T10:02:22.000Z,34
2019-05-17T10:03:22.000Z,34
2019-05-17T10:04:22.000Z,33
2019-05-17T10:05:22.000Z,33
2019-05-17T10:06:22.000Z,33
2019-05-17T10:07:22.000Z,33
2019-05-17T10:08:22.000Z,33
2019-05-17T10:09:22.000Z,33
2019-05-17T10:10:22.000Z,33
2019-05-17T10:11:22.000Z,33
2019-05-17T10:12:22.000Z,33
2019-05-17T10:13:22.000Z,33
2019-05-17T10:14:22.000Z,33
2019-05-17T10:15:22.000Z,33
2019-05-17T10:16:22.000Z,32
2019-05-17T10:17:22.000Z,33
2019-05-17T10:18:22.000Z,32
2019-05-17T10:19:22.000Z,32
2019-05-17T10:20:22.000Z,32
2019-05-17T10:21:22.000Z,32
2019-05-17T10:22:22.000Z,32
2019-05-17T10:23:22.000Z,32
2019-05-17T10:24:22.000Z,32
2019-05-17T10:25:22.000Z,32
2019-05-17T10:26:22.000Z,32
2019-05-17T10:27:22.000Z,32
2019-05-17T10:28:22.000Z,32
2019-05-17T10:29:22.000Z,32
2019-05-17T10:30:22.000Z,32
2019-05-17T10:31:22.000Z,32
2019-05-17T10:32:22.000Z,31
2019-05-17T10:33:22.000Z,31
2019-05-17T10:34:22.000Z,31
2019-05-17T10:35:22.000Z,31
2019-05-17T10:36:22.000Z,32
2019-05-17T10:37:22.000Z,31
2019-05-17T10:38:22.000Z,31
2019-05-17T10:39:22.000Z,31
2019-05-17T10:40:22.000Z,31
2019-05-17T10:41:22.000Z,31
2019-05-17T10:42:22.000Z,31
2019-05-17T10:43:22.000Z,30
2019-05-17T10:45:22.000Z,30
2019-05-17T10:46:22.000Z,30
2019-05-17T10:48:22.000Z,30
2019-05-17T10:49:22.000Z,30
2019-05-17T10:51:22.000Z,30
2019-05-17T10:52:22.000Z,30
2019-05-17T10:53:22.000Z,30
2019-05-17T10:54:22.000Z,30
2019-05-17T10:55:22.000Z,30
2019-05-17T10:56:22.000Z,30
2019-05-17T10:57:22.000Z,30
2019-05-17T10:58:22.000Z,31
2019-05-17T10:59:22.000Z,31
2019-05-17T11:00:22.000Z,31
2019-05-17T11:01:22.000Z,31
2019-05-17T11:02:22.000Z,31
2019-05-17T11:03:22.000Z,31
2019-05-17T11:05:22.000Z,30
2019-05-17T11:07:22.000Z,30
2019-05-17T11:08:21.000Z,30
2019-05-17T11:09:21.000Z,30
2019-05-17T11:10:21.000Z,30
2019-05-17T11:11:21.000Z,30
2019-05-17T11:12:21.000Z,30
2019-05-17T11:13:21.000Z,30
2019-05-17T11:14:21.000Z,30
2019-05-17T11:15:21.000Z,30
2019-05-17T11:16:21.000Z,30
2019-05-17T11:17:21.000Z,30
2019-05-17T11:18:21.000Z,30
2019-05-17T11:20:21.000Z,29
2019-05-17T11:21:21.000Z,29
2019-05-17T11:23:21.000Z,29
2019-05-17T11:24:21.000Z,29
2019-05-17T11:25:21.000Z,29
2019-05-17T11:27:21.000Z,29
2019-05-17T11:29:21.000Z,29
2019-05-17T11:30:21.000Z,29
2019-05-17T11:31:21.000Z,29
2019-05-17T11:32:21.000Z,29
2019-05-17T11:34:21.000Z,29
2019-05-17T11:36:21.000Z,29
2019-05-17T11:37:21.000Z,29
2019-05-17T11:38:21.000Z,29
2019-05-17T11:39:21.000Z,29
2019-05-17T11:40:21.000Z,29
2019-05-17T11:41:21.000Z,29
2019-05-17T11:42:21.000Z,29
2019-05-17T11:43:21.000Z,29
2019-05-17T11:44:21.000Z,29
2019-05-17T11:45:21.000Z,29
2019-05-17T11:46:21.000Z,29
2019-05-17T11:47:21.000Z,29
2019-05-17T11:48:21.000Z,29
2019-05-17T11:49:21.000Z,29
2019-05-17T11:50:21.000Z,29
2019-05-17T11:52:21.000Z,28
2019-05-17T11:53:21.000Z,28
2019-05-17T11:54:21.000Z,28
2019-05-17T11:55:21.000Z,28
2019-05-17T11:56:21.000Z,28
2019-05-17T11:57:21.000Z,28
2019-05-17T11:58:21.000Z,28
2019-05-17T11:59:21.000Z,28
2019-05-17T12:01:21.000Z,28
2019-05-17T12:02:21.000Z,28
2019-05-17T12:03:21.000Z,28
2019-05-17T12:04:21.000Z,28
2019-05-17T12:05:21.000Z,28
2019-05-17T12:07:21.000Z,28
2019-05-17T12:08:21.000Z,28
2019-05-17T12:09:21.000Z,28
2019-05-17T12:11:21.000Z,28
2019-05-17T12:12:22.000Z,28
2019-05-17T12:13:22.000Z,28
2019-05-17T12:15:22.000Z,28
2019-05-17T12:16:22.000Z,28
2019-05-17T12:17:22.000Z,28
2019-05-17T12:18:22.000Z,28
2019-05-17T12:19:22.000Z,28
2019-05-17T12:20:22.000Z,28
2019-05-17T12:22:22.000Z,28
2019-05-17T12:23:22.000Z,28
2019-05-17T12:24:22.000Z,28
2019-05-17T12:25:22.000Z,28
2019-05-17T12:26:22.000Z,28
2019-05-17T12:27:22.000Z,28
2019-05-17T12:29:22.000Z,28
2019-05-17T12:30:22.000Z,28
2019-05-17T12:31:22.000Z,27
2019-05-17T12:32:22.000Z,27
2019-05-17T12:34:22.000Z,27
2019-05-17T12:35:22.000Z,27
2019-05-17T12:36:22.000Z,27
2019-05-17T12:38:22.000Z,27
2019-05-17T12:39:22.000Z,27
2019-05-17T12:40:22.000Z,27
2019-05-17T12:41:22.000Z,27
2019-05-17T12:42:22.000Z,27
2019-05-17T12:44:22.000Z,27
2019-05-17T12:45:22.000Z,27
2019-05-17T12:46:22.000Z,27
2019-05-17T12:47:22.000Z,27
2019-05-17T12:48:22.000Z,27
2019-05-17T12:49:22.000Z,27
2019-05-17T12:50:22.000Z,27
2019-05-17T12:51:22.000Z,27
2019-05-17T12:52:22.000Z,27
2019-05-17T12:54:22.000Z,27
2019-05-17T12:56:22.000Z,27
2019-05-17T12:57:22.000Z,27
2019-05-17T12:58:22.000Z,27
2019-05-17T12:59:22.000Z,27
2019-05-17T13:01:22.000Z,27
2019-05-17T13:02:22.000Z,27
2019-05-17T13:03:22.000Z,27
2019-05-17T13:04:22.000Z,27
2019-05-17T13:06:22.000Z,27
2019-05-17T13:07:22.000Z,27
2019-05-17T13:08:22.000Z,27
2019-05-17T13:09:22.000Z,27
2019-05-17T13:10:22.000Z,27
2019-05-17T13:11:22.000Z,27
2019-05-17T13:12:22.000Z,27
2019-05-17T13:13:22.000Z,27
2019-05-17T13:14:22.000Z,27
2019-05-17T13:15:22.000Z,27
2019-05-17T13:16:22.000Z,27
2019-05-17T13:17:22.000Z,27
2019-05-17T13:18:22.000Z,27
2019-05-17T13:19:22.000Z,27
2019-05-17T13:20:22.000Z,27
2019-05-17T13:21:22.000Z,27
2019-05-17T13:23:22.000Z,27
2019-05-17T13:24:22.000Z,27
2019-05-17T13:25:22.000Z,27
2019-05-17T13:26:22.000Z,27
2019-05-17T13:27:22.000Z,27
2019-05-17T13:29:22.000Z,27
2019-05-17T13:30:22.000Z,27
2019-05-17T13:31:22.000Z,27
2019-05-17T13:32:22.000Z,27
2019-05-17T13:34:22.000Z,27
2019-05-17T13:35:22.000Z,27
2019-05-17T13:36:22.000Z,27
2019-05-17T13:37:22.000Z,27
2019-05-17T13:38:22.000Z,27
2019-05-17T13:39:22.000Z,27
2019-05-17T13:40:22.000Z,27
2019-05-17T13:42:22.000Z,27
2019-05-17T13:44:22.000Z,27
2019-05-17T13:45:22.000Z,27
2019-05-17T13:46:22.000Z,27
2019-05-17T13:48:22.000Z,27
2019-05-17T13:50:22.000Z,27
2019-05-17T13:51:22.000Z,27
2019-05-17T13:52:22.000Z,27
2019-05-17T13:53:22.000Z,27
2019-05-17T13:54:22.000Z,27
2019-05-17T13:55:22.000Z,28
2019-05-17T13:57:22.000Z,27
2019-05-17T13:58:22.000Z,28
2019-05-17T13:59:22.000Z,28
2019-05-17T14:00:22.000Z,28
2019-05-17T14:01:22.000Z,28
2019-05-17T14:03:22.000Z,28
2019-05-17T14:04:22.000Z,28
2019-05-17T14:05:22.000Z,28
2019-05-17T14:06:22.000Z,28
2019-05-17T14:07:22.000Z,28
2019-05-17T14:08:22.000Z,28
2019-05-17T14:09:22.000Z,28
2019-05-17T14:10:22.000Z,28
2019-05-17T14:11:22.000Z,28
2019-05-17T14:12:22.000Z,28
2019-05-17T14:13:22.000Z,28
2019-05-17T14:14:22.000Z,28
2019-05-17T14:15:22.000Z,28
2019-05-17T14:16:22.000Z,28
2019-05-17T14:17:22.000Z,28
2019-05-17T14:18:22.000Z,28
2019-05-17T14:19:22.000Z,28
2019-05-17T14:21:22.000Z,28
2019-05-17T14:22:22.000Z,28
2019-05-17T14:23:22.000Z,28
2019-05-17T14:24:22.000Z,28
2019-05-17T14:25:22.000Z,28
2019-05-17T14:27:22.000Z,28
2019-05-17T14:28:22.000Z,28
2019-05-17T14:29:22.000Z,28
2019-05-17T14:30:22.000Z,28
2019-05-17T14:31:22.000Z,28
2019-05-17T14:32:22.000Z,28
2019-05-17T14:33:22.000Z,28
2019-05-17T14:34:22.000Z,28
2019-05-17T14:36:22.000Z,28
2019-05-17T14:37:22.000Z,28
2019-05-17T14:38:22.000Z,28
2019-05-17T14:39:22.000Z,28
2019-05-17T14:40:22.000Z,28
2019-05-17T14:41:22.000Z,28
2019-05-17T14:42:22.000Z,28
2019-05-17T14:43:22.000Z,28
2019-05-17T14:44:22.000Z,28
2019-05-17T14:45:22.000Z,28
2019-05-17T14:47:22.000Z,28
2019-05-17T14:48:22.000Z,28
2019-05-17T14:49:22.000Z,28
2019-05-17T14:50:22.000Z,28
2019-05-17T14:51:22.000Z,28
2019-05-17T14:52:22.000Z,28
2019-05-17T14:53:22.000Z,28
2019-05-17T14:54:22.000Z,28
2019-05-17T14:55:22.000Z,28
2019-05-17T14:56:22.000Z,28
2019-05-17T14:57:22.000Z,28
2019-05-17T14:58:22.000Z,28
2019-05-17T14:59:22.000Z,28
2019-05-17T15:00:22.000Z,28
2019-05-17T15:01:22.000Z,28
2019-05-17T15:03:22.000Z,28
2019-05-17T15:04:22.000Z,28
2019-05-17T15:05:22.000Z,28
2019-05-17T15:06:22.000Z,28
2019-05-17T15:07:22.000Z,28
2019-05-17T15:08:22.000Z,28
2019-05-17T15:09:22.000Z,28
2019-05-17T15:10:22.000Z,28
2019-05-17T15:11:22.000Z,28
2019-05-17T15:12:22.000Z,28
2019-05-17T15:13:22.000Z,28
2019-05-17T15:14:22.000Z,28
2019-05-17T15:15:22.000Z,28
2019-05-17T15:16:22.000Z,28
2019-05-17T15:17:22.000Z,28
2019-05-17T15:18:22.000Z,28
2019-05-17T15:19:22.000Z,28
2019-05-17T15:20:22.000Z,28
2019-05-17T15:21:22.000Z,28
2019-05-17T15:22:22.000Z,28
2019-05-17T15:23:22.000Z,28
2019-05-17T15:24:22.000Z,28
2019-05-17T15:26:22.000Z,28
2019-05-17T15:27:22.000Z,28
2019-05-17T15:29:22.000Z,28
2019-05-17T15:30:22.000Z,28
2019-05-17T15:31:22.000Z,28
2019-05-17T15:32:22.000Z,28
2019-05-17T15:33:22.000Z,28
2019-05-17T15:35:22.000Z,28
2019-05-17T15:36:22.000Z,28
2019-05-17T15:37:22.000Z,28
2019-05-17T15:38:22.000Z,28
2019-05-17T15:39:22.000Z,28
2019-05-17T15:41:22.000Z,28
2019-05-17T15:42:22.000Z,28
2019-05-17T15:43:22.000Z,28
2019-05-17T15:44:22.000Z,28
2019-05-17T15:45:22.000Z,28
2019-05-17T15:46:22.000Z,28
2019-05-17T15:47:22.000Z,28
2019-05-17T15:49:22.000Z,28
2019-05-17T15:50:22.000Z,28
2019-05-17T15:51:22.000Z,28